Time;durP1;ratioP1;P1;durP2;ratioP2;P2;SDS_P1;SDS_P2;PMS_P1;PMS_P2;Temp;Humidity;BMP_temperature;BMP_pressure;BME280_temperature;BME280_humidity;BME280_pressure;Samples;Min_cycle;Max_cycle;Signal;HPM_P1;HPM_P2
2022/11/04 00:01:12;;;;;;;;;;;;;;;11.83;92.01;100101.69;4999673;28;19913;-72
2022/11/04 00:03:37;;;;;;;;;;;;;;;11.81;91.71;100096.53;4986420;28;20124;-71
2022/11/04 00:06:03;;;;;;;;;;;;;;;11.81;92.04;100103.56;4997491;28;20140;-72
2022/11/04 00:08:28;;;;;;;;;;;;;;;11.79;92.03;100108.91;4993057;28;19921;-72
2022/11/04 00:13:38;;;;;;;;;;;;;;;11.78;91.86;100127.34;4997093;28;20176;-72
2022/11/04 00:18:47;;;;;;;;;;;;;;;11.77;91.66;100118.66;4996522;28;19933;-71
2022/11/04 00:29:25;;;;;;;;;;;;;;;11.72;92.79;100139.88;4996476;28;19928;-72
2022/11/04 00:34:34;;;;;;;;;;;;;;;11.68;91.81;100143.63;5003642;28;20000;-72
2022/11/04 00:37:01;;;;;;;;;;;;;;;11.67;91.58;100146.31;4992703;28;19926;-72
2022/11/04 00:39:27;;;;;;;;;;;;;;;11.64;91.60;100146.47;4995988;28;20224;-72
2022/11/04 00:41:52;;;;;;;;;;;;;;;11.64;91.58;100141.22;4997878;28;19937;-72
2022/11/04 00:44:17;;;;;;;;;;;;;;;11.63;91.27;100148.28;5000263;28;20236;-72
2022/11/04 00:46:42;;;;;;;;;;;;;;;11.61;91.23;100154.53;4981668;28;19913;-72
2022/11/04 00:49:08;;;;;;;;;;;;;;;11.59;91.05;100146.75;4999119;28;19964;-72
2022/11/04 00:51:33;;;;;;;;;;;;;;;11.59;91.34;100148.50;4998868;28;19920;-71
2022/11/04 00:53:58;;;;;;;;;;;;;;;11.57;91.51;100147.75;4999067;28;20079;-72
2022/11/04 00:56:23;;;;;;;;;;;;;;;11.56;91.69;100160.03;4999080;28;19969;-72
2022/11/04 00:58:49;;;;;;;;;;;;;;;11.55;91.70;100165.34;4998980;28;19922;-72
2022/11/04 01:01:18;;;;;;;;;;;;;;;11.54;91.70;100180.25;4998695;28;20366;-72
2022/11/04 01:03:44;;;;;;;;;;;;;;;11.53;90.50;100181.16;4998340;28;20217;-72
2022/11/04 01:06:09;;;;;;;;;;;;;;;11.51;90.39;100177.78;4981454;28;20160;-72
2022/11/04 01:08:35;;;;;;;;;;;;;;;11.50;90.99;100171.72;4981274;28;19923;-72
2022/11/04 01:11:01;;;;;;;;;;;;;;;11.49;90.82;100177.88;4998770;28;19925;-72
2022/11/04 01:13:26;;;;;;;;;;;;;;;11.49;91.32;100184.91;4998709;28;20120;-72
2022/11/04 01:15:51;;;;;;;;;;;;;;;11.48;90.87;100194.53;4998352;28;19925;-72
2022/11/04 01:18:16;;;;;;;;;;;;;;;11.46;91.11;100193.78;4997648;28;20206;-72
2022/11/04 01:20:42;;;;;;;;;;;;;;;11.44;90.28;100198.28;4980413;28;19933;-72
2022/11/04 01:23:07;;;;;;;;;;;;;;;11.44;90.48;100205.28;4962312;28;19953;-72
2022/11/04 01:25:32;;;;;;;;;;;;;;;11.42;90.60;100213.22;4962593;28;19929;-72
2022/11/04 01:27:57;;;;;;;;;;;;;;;11.42;90.09;100212.38;4980285;28;19922;-72
2022/11/04 01:30:23;;;;;;;;;;;;;;;11.40;90.64;100214.25;4990659;28;19924;-72
2022/11/04 01:32:48;;;;;;;;;;;;;;;11.38;90.55;100214.31;4978865;28;20319;-72
2022/11/04 01:35:13;;;;;;;;;;;;;;;11.37;90.58;100206.53;4980333;28;20105;-72
2022/11/04 01:37:38;;;;;;;;;;;;;;;11.35;90.88;100206.63;4988530;28;19956;-72
2022/11/04 01:40:04;;;;;;;;;;;;;;;11.36;91.46;100207.47;4990377;28;19921;-71
2022/11/04 01:42:29;;;;;;;;;;;;;;;11.34;91.49;100212.81;4998390;28;19914;-72
2022/11/04 01:44:59;;;;;;;;;;;;;;;11.34;91.51;100228.53;4992882;28;19910;-72
2022/11/04 01:47:24;;;;;;;;;;;;;;;11.32;91.12;100225.16;4979160;28;19918;-72
2022/11/04 01:49:53;;;;;;;;;;;;;;;11.32;91.44;100225.16;4987225;28;19956;-72
2022/11/04 01:52:23;;;;;;;;;;;;;;;11.32;91.59;100228.59;4978899;28;19950;-72
2022/11/04 01:54:50;;;;;;;;;;;;;;;11.30;91.19;100230.47;4979133;28;19988;-72
2022/11/04 01:57:22;;;;;;;;;;;;;;;11.31;90.98;100236.53;4980754;28;19928;-72
2022/11/04 01:59:48;;;;;;;;;;;;;;;11.30;91.13;100238.34;4997907;28;19921;-72
2022/11/04 02:02:13;;;;;;;;;;;;;;;11.29;91.16;100238.41;4979682;28;19981;-72
2022/11/04 02:04:39;;;;;;;;;;;;;;;11.28;91.23;100242.81;4979113;28;19914;-72
2022/11/04 02:07:06;;;;;;;;;;;;;;;11.27;91.38;100245.50;4995007;28;19917;-72
2022/11/04 02:09:32;;;;;;;;;;;;;;;11.26;91.43;100249.91;4988971;28;19918;-72
2022/11/04 02:14:43;;;;;;;;;;;;;;;11.25;91.86;100250.00;4995888;28;19964;-72
2022/11/04 02:17:17;;;;;;;;;;;;;;;11.23;92.10;100249.22;4990106;28;19921;-72
2022/11/04 02:20:03;;;;;;;;;;;;;;;11.23;92.08;100251.84;4997087;28;19920;-72
2022/11/04 02:22:40;;;;;;;;;;;;;;;11.21;92.10;100249.31;4965018;28;19917;-72
2022/11/04 02:25:24;;;;;;;;;;;;;;;11.20;92.05;100239.72;4994855;28;20248;-72
2022/11/04 02:28:08;;;;;;;;;;;;;;;11.20;91.83;100252.00;4994438;28;20280;-71
2022/11/04 02:31:06;;;;;;;;;;;;;;;11.19;91.72;100253.78;4997255;28;19918;-72
2022/11/04 02:33:37;;;;;;;;;;;;;;;11.16;91.81;100246.06;4935224;28;20190;-72
2022/11/04 02:36:05;;;;;;;;;;;;;;;11.14;92.01;100243.53;4981766;28;19917;-72
2022/11/04 02:38:44;;;;;;;;;;;;;;;11.13;91.83;100252.34;4980956;28;19913;-72
2022/11/04 02:41:16;;;;;;;;;;;;;;;11.13;91.86;100256.72;4997124;28;19910;-72
2022/11/04 02:43:51;;;;;;;;;;;;;;;11.11;91.78;100251.56;4973444;28;19988;-72
2022/11/04 02:46:25;;;;;;;;;;;;;;;11.11;91.96;100261.19;4997687;28;19918;-72
2022/11/04 02:48:54;;;;;;;;;;;;;;;11.09;92.07;100255.19;4961819;28;20050;-72
2022/11/04 02:51:31;;;;;;;;;;;;;;;11.08;92.15;100256.13;4978353;28;19917;-72
2022/11/04 02:54:11;;;;;;;;;;;;;;;11.05;92.02;100248.41;4997425;28;20112;-72
2022/11/04 02:56:40;;;;;;;;;;;;;;;11.05;92.07;100248.41;4979461;28;19949;-72
2022/11/04 02:59:08;;;;;;;;;;;;;;;11.03;92.22;100251.09;4978484;28;19910;-72
2022/11/04 03:01:36;;;;;;;;;;;;;;;11.02;91.94;100256.44;4960894;28;20209;-72
2022/11/04 03:04:05;;;;;;;;;;;;;;;11.01;92.14;100255.59;4994291;28;19965;-72
2022/11/04 03:06:32;;;;;;;;;;;;;;;11.01;91.94;100252.13;4990273;28;19909;-71
2022/11/04 03:08:59;;;;;;;;;;;;;;;11.00;91.98;100255.66;4996676;28;19909;-72
2022/11/04 03:11:26;;;;;;;;;;;;;;;10.98;92.13;100253.13;4997191;28;19917;-72
2022/11/04 03:13:57;;;;;;;;;;;;;;;10.97;92.25;100261.91;4977583;28;20182;-72
2022/11/04 03:16:39;;;;;;;;;;;;;;;10.95;92.23;100250.66;4965132;28;19926;-72
2022/11/04 03:19:12;;;;;;;;;;;;;;;10.94;92.30;100259.44;4958380;28;19922;-72
2022/11/04 03:21:41;;;;;;;;;;;;;;;10.93;92.10;100256.00;4969813;28;19949;-72
2022/11/04 03:24:07;;;;;;;;;;;;;;;10.92;92.19;100254.28;4977530;28;20052;-72
2022/11/04 03:26:37;;;;;;;;;;;;;;;10.91;92.23;100263.09;4977872;28;20153;-72
2022/11/04 03:29:03;;;;;;;;;;;;;;;10.90;92.20;100258.75;4977621;28;19917;-71
2022/11/04 03:31:40;;;;;;;;;;;;;;;10.90;92.24;100264.00;4978103;28;19917;-72
2022/11/04 03:34:05;;;;;;;;;;;;;;;10.89;92.20;100266.69;4976478;28;20267;-72
2022/11/04 03:36:30;;;;;;;;;;;;;;;10.88;92.59;100270.25;4977779;28;19914;-71
2022/11/04 03:38:55;;;;;;;;;;;;;;;10.88;92.79;100280.72;4977395;28;20260;-72
2022/11/04 03:41:41;;;;;;;;;;;;;;;10.87;92.86;100286.88;4978184;28;19910;-71
2022/11/04 03:44:06;;;;;;;;;;;;;;;10.86;92.79;100285.19;4981081;28;20280;-71
2022/11/04 03:46:31;;;;;;;;;;;;;;;10.84;92.63;100285.28;4981307;28;19918;-72
2022/11/04 03:48:58;;;;;;;;;;;;;;;10.84;92.62;100289.66;4980793;28;19913;-72
2022/11/04 03:51:23;;;;;;;;;;;;;;;10.83;92.86;100293.22;4981169;28;19981;-72
2022/11/04 03:53:49;;;;;;;;;;;;;;;10.82;92.76;100294.13;4980944;28;19918;-72
2022/11/04 03:56:17;;;;;;;;;;;;;;;10.80;92.57;100285.50;4979759;28;19977;-72
2022/11/04 03:58:51;;;;;;;;;;;;;;;10.78;92.73;100284.72;4981390;28;20288;-72
2022/11/04 04:01:16;;;;;;;;;;;;;;;10.77;92.66;100286.50;4981077;28;20149;-72
2022/11/04 04:03:47;;;;;;;;;;;;;;;10.76;92.68;100298.75;4980425;28;19906;-72
2022/11/04 04:06:18;;;;;;;;;;;;;;;10.76;92.45;100300.50;4980702;28;19914;-72
2022/11/04 04:08:50;;;;;;;;;;;;;;;10.74;92.61;100297.97;4980447;28;19993;-72
2022/11/04 04:11:22;;;;;;;;;;;;;;;10.74;92.56;100305.81;4980975;28;19917;-72
2022/11/04 04:13:53;;;;;;;;;;;;;;;10.72;92.44;100305.06;4980107;28;19929;-72
2022/11/04 04:16:26;;;;;;;;;;;;;;;10.72;92.75;100309.47;4980565;28;19973;-71
2022/11/04 04:18:51;;;;;;;;;;;;;;;10.71;92.82;100313.00;4980298;28;20212;-72
2022/11/04 04:21:20;;;;;;;;;;;;;;;10.69;92.73;100318.28;4992940;28;20119;-72
2022/11/04 04:29:18;;;;;;;;;;;;;;;10.67;93.00;100320.16;4999982;28;19913;-72
2022/11/04 04:31:49;;;;;;;;;;;;;;;10.66;92.82;100331.56;4999025;28;20228;-72
2022/11/04 04:34:15;;;;;;;;;;;;;;;10.66;93.00;100330.69;4998904;28;20105;-71
2022/11/04 04:36:44;;;;;;;;;;;;;;;10.65;93.06;100340.34;4998403;28;20021;-72
2022/11/04 04:47:45;;;;;;;;;;;;;;;10.61;93.07;100333.56;4982979;28;19954;-72
2022/11/04 04:50:12;;;;;;;;;;;;;;;10.59;93.07;100343.25;4999635;28;20198;-71
2022/11/04 04:52:40;;;;;;;;;;;;;;;10.58;93.41;100349.41;4998571;28;20201;-72
2022/11/04 04:55:06;;;;;;;;;;;;;;;10.56;92.86;100354.72;4999845;28;19985;-72
2022/11/04 04:57:31;;;;;;;;;;;;;;;10.57;93.24;100358.19;4999412;28;19924;-72
2022/11/04 04:59:56;;;;;;;;;;;;;;;10.55;93.08;100357.41;4998930;28;19979;-72
2022/11/04 05:02:21;;;;;;;;;;;;;;;10.54;93.16;100353.09;4999613;28;19917;-72
2022/11/04 05:04:47;;;;;;;;;;;;;;;10.52;92.99;100355.78;4998595;28;19941;-72
2022/11/04 05:07:12;;;;;;;;;;;;;;;10.50;93.11;100360.25;4999485;28;19910;-72
2022/11/04 05:09:37;;;;;;;;;;;;;;;10.50;92.95;100369.88;4998767;28;20104;-73
2022/11/04 05:12:03;;;;;;;;;;;;;;;10.49;92.80;100374.25;4999237;28;19909;-72
2022/11/04 05:14:29;;;;;;;;;;;;;;;10.47;92.99;100368.25;4999346;28;20085;-71
2022/11/04 05:16:54;;;;;;;;;;;;;;;10.46;92.88;100371.81;4999008;28;20234;-72
2022/11/04 05:19:19;;;;;;;;;;;;;;;10.45;92.76;100385.78;4997860;28;20205;-72
2022/11/04 05:21:45;;;;;;;;;;;;;;;10.44;92.83;100384.13;4996823;28;20273;-72
2022/11/04 05:24:10;;;;;;;;;;;;;;;10.42;92.76;100385.09;4981305;28;19921;-72
2022/11/04 05:26:35;;;;;;;;;;;;;;;10.41;92.71;100393.88;4998578;28;19928;-72
2022/11/04 05:29:00;;;;;;;;;;;;;;;10.40;92.56;100402.66;4997971;28;19948;-71
2022/11/04 05:31:26;;;;;;;;;;;;;;;10.37;92.61;100412.34;4998763;28;19926;-71
2022/11/04 05:33:52;;;;;;;;;;;;;;;10.35;92.53;100411.56;4997971;28;19929;-72
2022/11/04 05:36:17;;;;;;;;;;;;;;;10.36;92.71;100417.66;4998750;28;19914;-72
2022/11/04 05:38:43;;;;;;;;;;;;;;;10.35;92.77;100418.56;4997023;28;20236;-71
2022/11/04 05:41:09;;;;;;;;;;;;;;;10.33;92.91;100416.03;4998618;28;19905;-71
2022/11/04 05:43:34;;;;;;;;;;;;;;;10.33;93.01;100413.41;4998840;28;19917;-71
2022/11/04 05:46:00;;;;;;;;;;;;;;;10.33;92.95;100417.78;4998208;28;19981;-71
2022/11/04 05:48:26;;;;;;;;;;;;;;;10.32;93.33;100427.41;4998635;28;19956;-71
2022/11/04 05:50:51;;;;;;;;;;;;;;;10.32;93.49;100421.34;4998070;28;20229;-71
2022/11/04 05:53:17;;;;;;;;;;;;;;;10.32;93.22;100431.81;5013546;28;19917;-71
2022/11/04 05:55:42;;;;;;;;;;;;;;;10.31;93.33;100422.25;4997773;28;20224;-71
2022/11/04 05:58:07;;;;;;;;;;;;;;;10.30;93.38;100423.97;4985406;28;19984;-71
2022/11/04 06:00:32;;;;;;;;;;;;;;;10.32;93.63;100431.81;4996167;28;19984;-71
2022/11/04 06:02:58;;;;;;;;;;;;;;;10.30;93.82;100439.69;4992139;28;19926;-71
2022/11/04 06:05:23;;;;;;;;;;;;;;;10.30;93.96;100439.69;4993905;28;19917;-71
2022/11/04 06:07:49;;;;;;;;;;;;;;;10.29;94.10;100443.22;4993272;28;19937;-71
2022/11/04 06:10:14;;;;;;;;;;;;;;;10.29;94.20;100448.44;5005107;28;19977;-71
2022/11/04 06:12:39;;;;;;;;;;;;;;;10.29;94.13;100442.38;4997659;28;19910;-71
2022/11/04 06:15:05;;;;;;;;;;;;;;;10.29;94.14;100442.38;4998202;28;20209;-71
2022/11/04 06:17:30;;;;;;;;;;;;;;;10.28;94.16;100444.16;4998013;28;19921;-71
2022/11/04 06:19:55;;;;;;;;;;;;;;;10.30;94.00;100446.69;4997486;28;19918;-71
2022/11/04 06:22:21;;;;;;;;;;;;;;;10.29;94.13;100442.38;4998430;28;19918;-71
2022/11/04 06:24:46;;;;;;;;;;;;;;;10.29;94.46;100447.59;4995989;28;20194;-71
2022/11/04 06:27:12;;;;;;;;;;;;;;;10.28;94.57;100446.75;4997616;28;19949;-71
2022/11/04 06:29:39;;;;;;;;;;;;;;;10.28;94.55;100452.00;4997472;28;20212;-72
2022/11/04 06:32:06;;;;;;;;;;;;;;;10.28;94.56;100451.16;4987767;28;20109;-71
2022/11/04 06:34:31;;;;;;;;;;;;;;;10.28;94.64;100446.75;4989654;28;19910;-71
2022/11/04 06:36:56;;;;;;;;;;;;;;;10.28;94.80;100445.94;4990708;28;20215;-71
2022/11/04 06:39:21;;;;;;;;;;;;;;;10.27;94.81;100444.22;4987649;28;19921;-71
2022/11/04 06:41:47;;;;;;;;;;;;;;;10.27;95.02;100438.97;4989554;28;19909;-71
2022/11/04 06:44:12;;;;;;;;;;;;;;;10.25;95.01;100443.44;4998156;28;19929;-71
2022/11/04 06:46:41;;;;;;;;;;;;;;;10.24;95.01;100442.59;4998936;28;19909;-71
2022/11/04 06:49:09;;;;;;;;;;;;;;;10.24;95.08;100450.44;4995666;28;19921;-71
2022/11/04 06:51:34;;;;;;;;;;;;;;;10.23;95.23;100456.59;4995962;28;20210;-71
2022/11/04 06:54:00;;;;;;;;;;;;;;;10.23;95.28;100453.97;4995706;28;19917;-73
2022/11/04 06:56:25;;;;;;;;;;;;;;;10.22;95.21;100454.88;4996698;28;19910;-71
2022/11/04 06:58:51;;;;;;;;;;;;;;;10.22;95.37;100454.88;4996520;28;20252;-71
2022/11/04 07:01:17;;;;;;;;;;;;;;;10.22;95.40;100451.41;5001138;28;20000;-71
2022/11/04 07:03:42;;;;;;;;;;;;;;;10.20;95.19;100461.94;4986709;28;19922;-71
2022/11/04 07:06:08;;;;;;;;;;;;;;;10.21;95.35;100461.03;4997353;28;20104;-71
2022/11/04 07:08:33;;;;;;;;;;;;;;;10.19;95.22;100463.72;4997446;28;19917;-71
2022/11/04 07:10:59;;;;;;;;;;;;;;;10.19;95.36;100463.72;4996904;28;19922;-71
2022/11/04 07:13:24;;;;;;;;;;;;;;;10.19;95.47;100474.19;4978724;28;19917;-71
2022/11/04 07:15:49;;;;;;;;;;;;;;;10.19;95.37;100481.22;4995220;28;19948;-72
2022/11/04 07:18:14;;;;;;;;;;;;;;;10.19;95.63;100478.59;5001202;28;20125;-71
2022/11/04 07:20:40;;;;;;;;;;;;;;;10.19;95.30;100481.22;4998822;28;20137;-71
2022/11/04 07:23:05;;;;;;;;;;;;;;;10.18;95.18;100485.56;5002128;28;20201;-71
2022/11/04 07:25:30;;;;;;;;;;;;;;;10.18;95.27;100479.50;4999095;28;19945;-71
2022/11/04 07:27:56;;;;;;;;;;;;;;;10.18;95.44;100487.34;4999132;28;19959;-71
2022/11/04 07:30:21;;;;;;;;;;;;;;;10.18;95.40;100500.44;4998226;28;19913;-71
2022/11/04 07:32:46;;;;;;;;;;;;;;;10.18;95.34;100510.91;5009540;28;19921;-71
2022/11/04 07:35:12;;;;;;;;;;;;;;;10.17;95.47;100506.59;4999242;28;20124;-71
2022/11/04 07:37:37;;;;;;;;;;;;;;;10.17;95.75;100512.69;4999852;28;19924;-71
2022/11/04 07:40:04;;;;;;;;;;;;;;;10.17;95.79;100520.53;4998648;28;19914;-71
2022/11/04 07:42:29;;;;;;;;;;;;;;;10.17;95.73;100528.38;5000277;28;19913;-71
2022/11/04 07:44:54;;;;;;;;;;;;;;;10.17;95.92;100517.91;5000131;28;20101;-71
2022/11/04 07:47:19;;;;;;;;;;;;;;;10.18;95.91;100527.44;5000761;28;19914;-71
2022/11/04 07:49:45;;;;;;;;;;;;;;;10.19;96.02;100523.91;5000428;28;19924;-71
2022/11/04 07:52:10;;;;;;;;;;;;;;;10.19;95.76;100539.63;4998559;28;19993;-71
2022/11/04 07:54:36;;;;;;;;;;;;;;;10.18;96.10;100537.91;4999659;28;19992;-71
2022/11/04 07:57:01;;;;;;;;;;;;;;;10.19;96.29;100544.84;5000812;28;19909;-71
2022/11/04 07:59:27;;;;;;;;;;;;;;;10.20;96.12;100553.53;4995035;28;20136;-71
2022/11/04 08:01:52;;;;;;;;;;;;;;;10.21;96.27;100551.81;4994250;28;20252;-71
2022/11/04 08:04:18;;;;;;;;;;;;;;;10.20;96.13;100548.31;4996532;28;20418;-71
2022/11/04 08:06:44;;;;;;;;;;;;;;;10.20;96.56;100556.16;5001264;28;20149;-71
2022/11/04 08:09:09;;;;;;;;;;;;;;;10.21;96.32;100559.66;5012624;28;20115;-71
2022/11/04 08:11:34;;;;;;;;;;;;;;;10.21;96.28;100565.72;5003191;28;20185;-71
2022/11/04 08:14:01;;;;;;;;;;;;;;;10.22;96.09;100567.41;5001842;28;19925;-72
2022/11/04 08:16:26;;;;;;;;;;;;;;;10.22;96.18;100577.88;5000051;28;19917;-71
2022/11/04 08:18:52;;;;;;;;;;;;;;;10.22;96.27;100580.50;4983682;28;19922;-71
2022/11/04 08:21:18;;;;;;;;;;;;;;;10.23;96.31;100570.91;4991698;28;19921;-71
2022/11/04 08:23:44;;;;;;;;;;;;;;;10.22;96.22;100577.88;4980721;28;20106;-71
2022/11/04 08:26:19;;;;;;;;;;;;;;;10.23;96.61;100581.38;4981736;28;19916;-71
2022/11/04 08:28:45;;;;;;;;;;;;;;;10.23;96.77;100584.81;4981107;28;19925;-71
2022/11/04 08:31:14;;;;;;;;;;;;;;;10.25;96.49;100587.38;4985341;28;20213;-71
2022/11/04 08:33:40;;;;;;;;;;;;;;;10.24;96.89;100591.78;4979994;28;19976;-71
2022/11/04 08:36:08;;;;;;;;;;;;;;;10.25;96.94;100584.75;4983649;28;19945;-71
2022/11/04 08:38:33;;;;;;;;;;;;;;;10.26;96.52;100591.69;4981643;28;19922;-71
2022/11/04 08:40:59;;;;;;;;;;;;;;;10.26;96.74;100581.22;4980335;28;20057;-71
2022/11/04 08:43:24;;;;;;;;;;;;;;;10.26;96.51;100595.19;4980794;28;20224;-71
2022/11/04 08:45:50;;;;;;;;;;;;;;;10.27;96.73;100594.25;4981683;28;19985;-74
2022/11/04 08:48:16;;;;;;;;;;;;;;;10.28;96.83;100600.34;4983713;28;20180;-71
2022/11/04 08:50:41;;;;;;;;;;;;;;;10.29;96.70;100597.63;4979946;28;19914;-73
2022/11/04 08:53:07;;;;;;;;;;;;;;;10.28;96.42;100605.59;4970215;28;19945;-71
2022/11/04 08:55:32;;;;;;;;;;;;;;;10.29;95.70;100607.25;4979831;28;20209;-71
2022/11/04 08:57:58;;;;;;;;;;;;;;;10.31;96.19;100610.69;4978915;28;19992;-71
2022/11/04 09:00:23;;;;;;;;;;;;;;;10.29;95.24;100612.50;4981938;28;19925;-73
2022/11/04 09:02:49;;;;;;;;;;;;;;;10.31;94.97;100608.06;4980829;28;20017;-71
2022/11/04 09:05:14;;;;;;;;;;;;;;;10.31;94.66;100622.00;4997236;28;19917;-71
2022/11/04 09:07:39;;;;;;;;;;;;;;;10.31;94.02;100622.00;4977696;28;19933;-71
2022/11/04 09:10:05;;;;;;;;;;;;;;;10.31;93.19;100619.38;4974035;28;19918;-71
2022/11/04 09:12:30;;;;;;;;;;;;;;;10.33;93.50;100628.06;4972248;28;19917;-71
2022/11/04 09:14:56;;;;;;;;;;;;;;;10.33;94.12;100620.19;4979083;28;19921;-71
2022/11/04 09:17:21;;;;;;;;;;;;;;;10.34;93.77;100631.50;4979492;28;19985;-71
2022/11/04 09:19:46;;;;;;;;;;;;;;;10.35;93.51;100635.81;4977815;28;19925;-71
2022/11/04 09:22:12;;;;;;;;;;;;;;;10.34;92.87;100634.97;4978403;28;19929;-71
2022/11/04 09:24:37;;;;;;;;;;;;;;;10.35;92.98;100634.06;4960879;28;20024;-71
2022/11/04 09:27:03;;;;;;;;;;;;;;;10.36;93.52;100627.91;4979628;28;19918;-71
2022/11/04 09:29:32;;;;;;;;;;;;;;;10.39;93.97;100634.78;4979336;28;19922;-71
2022/11/04 09:31:57;;;;;;;;;;;;;;;10.40;94.29;100640.88;4976017;28;20098;-71
2022/11/04 09:34:22;;;;;;;;;;;;;;;10.42;94.68;100646.88;4978251;28;19948;-71
2022/11/04 09:36:48;;;;;;;;;;;;;;;10.42;95.15;100647.72;4973118;28;20264;-71
2022/11/04 09:39:13;;;;;;;;;;;;;;;10.43;95.37;100657.28;4979014;28;20356;-73
2022/11/04 09:41:57;;;;;;;;;;;;;;;10.43;95.57;100657.28;4992639;28;19997;-73
2022/11/04 09:44:31;;;;;;;;;;;;;;;10.45;95.64;100667.72;4978605;28;19910;-73
2022/11/04 09:46:59;;;;;;;;;;;;;;;10.46;95.91;100662.41;4978346;28;19914;-71
2022/11/04 09:49:26;;;;;;;;;;;;;;;10.47;96.14;100671.94;4977356;28;19924;-71
2022/11/04 09:51:53;;;;;;;;;;;;;;;10.48;96.04;100672.81;4978310;28;19925;-73
2022/11/04 09:54:39;;;;;;;;;;;;;;;10.49;95.89;100677.97;4961503;28;20156;-73
2022/11/04 09:57:12;;;;;;;;;;;;;;;10.48;95.30;100673.66;4981243;28;19962;-73
2022/11/04 09:59:37;;;;;;;;;;;;;;;10.51;95.63;100673.53;4978177;28;20122;-73
2022/11/04 10:02:02;;;;;;;;;;;;;;;10.53;96.00;100678.69;4987145;28;19933;-73
2022/11/04 10:04:35;;;;;;;;;;;;;;;10.53;96.37;100684.78;4962769;28;20041;-73
2022/11/04 10:07:25;;;;;;;;;;;;;;;10.55;96.92;100689.94;4977044;28;19996;-73
2022/11/04 10:09:56;;;;;;;;;;;;;;;10.58;97.03;100705.53;4976615;28;19942;-73
2022/11/04 10:12:25;;;;;;;;;;;;;;;10.58;97.30;100705.53;4959486;28;20225;-73
2022/11/04 10:14:56;;;;;;;;;;;;;;;10.60;97.61;100718.56;4975932;28;19972;-73
2022/11/04 10:17:24;;;;;;;;;;;;;;;10.61;97.69;100715.03;4977282;28;20199;-73
2022/11/04 10:19:55;;;;;;;;;;;;;;;10.62;97.78;100725.41;4998641;28;19941;-73
2022/11/04 10:22:28;;;;;;;;;;;;;;;10.64;97.90;100730.59;4989614;28;20212;-73
2022/11/04 10:25:11;;;;;;;;;;;;;;;10.63;97.85;100731.53;4993803;28;19949;-73
2022/11/04 10:27:40;;;;;;;;;;;;;;;10.64;97.52;100741.06;4995225;28;20145;-74
2022/11/04 10:30:12;;;;;;;;;;;;;;;10.64;97.51;100734.09;4994315;28;19924;-73
2022/11/04 10:32:45;;;;;;;;;;;;;;;10.65;97.27;100746.25;4998570;28;20197;-73
2022/11/04 10:35:48;;;;;;;;;;;;;;;10.67;97.11;100748.81;4998888;28;19917;-73
2022/11/04 10:38:22;;;;;;;;;;;;;;;10.68;97.78;100742.69;4973866;28;20153;-73
2022/11/04 10:40:49;;;;;;;;;;;;;;;10.69;98.17;100745.19;4957589;28;20098;-74
2022/11/04 10:43:17;;;;;;;;;;;;;;;10.70;97.87;100746.06;4981410;28;20126;-74
2022/11/04 10:45:49;;;;;;;;;;;;;;;10.72;97.77;100742.47;4978229;28;19981;-73
2022/11/04 10:48:23;;;;;;;;;;;;;;;10.73;97.78;100753.78;4997332;28;19924;-73
2022/11/04 10:50:56;;;;;;;;;;;;;;;10.74;97.64;100760.72;4993828;28;19918;-74
2022/11/04 10:53:29;;;;;;;;;;;;;;;10.74;97.55;100761.56;4999139;28;19925;-74
2022/11/04 10:56:10;;;;;;;;;;;;;;;10.76;97.62;100769.38;4999120;28;19985;-73
2022/11/04 10:58:41;;;;;;;;;;;;;;;10.76;97.94;100770.22;4994783;28;20116;-74
2022/11/04 11:01:22;;;;;;;;;;;;;;;10.78;97.55;100772.78;4995744;28;20213;-73
2022/11/04 11:03:47;;;;;;;;;;;;;;;10.78;97.38;100769.31;4996386;28;19910;-74
2022/11/04 11:06:20;;;;;;;;;;;;;;;10.79;97.54;100769.25;4998232;28;19969;-73
2022/11/04 11:08:46;;;;;;;;;;;;;;;10.82;97.71;100766.47;4997425;28;19918;-74
2022/11/04 11:11:13;;;;;;;;;;;;;;;10.83;97.65;100770.81;4998311;28;20240;-73
2022/11/04 11:13:42;;;;;;;;;;;;;;;10.84;97.38;100777.78;4981039;28;19917;-74
2022/11/04 11:16:07;;;;;;;;;;;;;;;10.87;97.85;100782.00;4997960;28;19981;-74
2022/11/04 11:18:33;;;;;;;;;;;;;;;10.87;98.22;100790.72;4998259;28;19928;-74
2022/11/04 11:21:09;;;;;;;;;;;;;;;10.88;97.36;100789.81;4997714;28;20024;-74
2022/11/04 11:23:38;;;;;;;;;;;;;;;10.90;96.97;100806.31;4984128;28;19920;-74
2022/11/04 11:26:04;;;;;;;;;;;;;;;10.91;97.31;100805.41;4970681;28;19940;-74
2022/11/04 11:28:36;;;;;;;;;;;;;;;10.92;97.53;100820.19;4983302;28;19917;-74
2022/11/04 11:31:04;;;;;;;;;;;;;;;10.92;97.51;100817.59;4973709;28;19918;-74
2022/11/04 11:33:34;;;;;;;;;;;;;;;10.90;96.60;100832.53;4976593;28;19945;-74
2022/11/04 11:36:11;;;;;;;;;;;;;;;10.90;96.29;100831.69;4983805;28;20252;-74
2022/11/04 11:38:37;;;;;;;;;;;;;;;10.88;96.09;100829.13;4981156;28;19918;-73
2022/11/04 11:41:12;;;;;;;;;;;;;;;10.84;94.80;100832.78;4987066;28;20148;-73
2022/11/04 11:43:41;;;;;;;;;;;;;;;10.83;95.10;100835.47;4981851;28;20488;-74
2022/11/04 11:46:06;;;;;;;;;;;;;;;10.82;95.54;100834.59;4974674;28;19918;-74
2022/11/04 11:48:39;;;;;;;;;;;;;;;10.80;96.06;100831.19;4972951;28;20237;-74
2022/11/04 11:51:04;;;;;;;;;;;;;;;10.80;96.27;100841.66;4979955;28;19914;-74
2022/11/04 11:53:33;;;;;;;;;;;;;;;10.80;96.46;100852.16;4984772;28;20032;-73
2022/11/04 11:56:16;;;;;;;;;;;;;;;10.82;96.90;100859.94;4958947;28;19925;-73
2022/11/04 11:58:48;;;;;;;;;;;;;;;10.81;96.83;100853.03;4983463;28;19937;-74
2022/11/04 12:01:29;;;;;;;;;;;;;;;10.81;96.92;100859.09;4978129;28;20136;-74
2022/11/04 12:03:54;;;;;;;;;;;;;;;10.81;97.01;100860.88;4958073;28;20117;-74
2022/11/04 12:06:38;;;;;;;;;;;;;;;10.82;97.07;100866.03;4979454;28;19925;-74
2022/11/04 12:09:07;;;;;;;;;;;;;;;10.83;97.32;100864.28;4990128;28;19941;-74
2022/11/04 12:11:35;;;;;;;;;;;;;;;10.83;97.55;100856.44;4984083;28;20223;-74
2022/11/04 12:14:04;;;;;;;;;;;;;;;10.81;96.97;100850.41;4981916;28;19914;-74
2022/11/04 12:16:40;;;;;;;;;;;;;;;10.80;96.30;100854.75;4982455;28;20247;-73
2022/11/04 12:19:34;;;;;;;;;;;;;;;10.81;96.43;100847.78;4980822;28;20024;-74
2022/11/04 12:22:00;;;;;;;;;;;;;;;10.82;96.79;100857.31;4921038;28;19915;-74
2022/11/04 12:24:44;;;;;;;;;;;;;;;10.82;96.79;100858.16;4987199;28;19972;-73
2022/11/04 12:27:17;;;;;;;;;;;;;;;10.82;96.78;100860.78;4982083;28;19980;-74
2022/11/04 12:29:54;;;;;;;;;;;;;;;10.82;96.81;100871.28;4963449;28;19925;-74
2022/11/04 12:32:25;;;;;;;;;;;;;;;10.82;96.91;100868.66;4986848;28;20092;-74
2022/11/04 12:35:14;;;;;;;;;;;;;;;10.82;96.50;100865.19;4988231;28;20161;-74
2022/11/04 12:37:39;;;;;;;;;;;;;;;10.83;96.62;100861.66;4964296;28;20148;-74
2022/11/04 12:40:07;;;;;;;;;;;;;;;10.83;96.20;100877.38;4987360;28;20006;-74
2022/11/04 12:42:36;;;;;;;;;;;;;;;10.83;96.24;100875.59;5002507;28;19913;-74
2022/11/04 12:45:16;;;;;;;;;;;;;;;10.82;96.20;100889.59;4986337;28;19988;-74
2022/11/04 12:47:46;;;;;;;;;;;;;;;10.83;95.82;100899.19;4991440;28;19918;-74
2022/11/04 12:50:32;;;;;;;;;;;;;;;10.82;96.17;100907.09;4982253;28;19930;-73
2022/11/04 12:52:57;;;;;;;;;;;;;;;10.82;95.81;100918.44;4985858;28;19925;-74
2022/11/04 12:55:40;;;;;;;;;;;;;;;10.83;95.63;100916.69;4981891;28;19910;-74
2022/11/04 12:58:23;;;;;;;;;;;;;;;10.82;95.83;100928.91;4979830;28;20162;-73
2022/11/04 13:00:54;;;;;;;;;;;;;;;10.83;95.88;100925.38;4982347;28;19956;-74
2022/11/04 13:03:22;;;;;;;;;;;;;;;10.83;95.53;100921.91;4970527;28;19925;-74
2022/11/04 13:05:55;;;;;;;;;;;;;;;10.82;95.55;100936.75;4981316;28;20193;-74
2022/11/04 13:08:38;;;;;;;;;;;;;;;10.83;95.68;100938.47;4987600;28;19925;-74
2022/11/04 13:11:21;;;;;;;;;;;;;;;10.83;95.14;100950.75;4968475;28;19918;-74
2022/11/04 13:13:49;;;;;;;;;;;;;;;10.84;95.03;100947.19;4976838;28;19989;-74
2022/11/04 13:16:14;;;;;;;;;;;;;;;10.84;95.48;100952.44;4991867;28;19952;-74